createdAt,value
2018-03-02T00:00:27.404Z,21.40
2018-03-02T00:01:27.429Z,21.46
2018-03-02T00:02:20.557Z,21.36
2018-03-02T00:03:20.840Z,21.40
2018-03-02T00:04:21.037Z,21.35
2018-03-02T00:05:21.275Z,21.39
2018-03-02T00:06:21.518Z,21.35
2018-03-02T00:07:21.750Z,21.40
2018-03-02T00:08:21.989Z,21.40
2018-03-02T00:09:22.228Z,21.40
2018-03-02T00:10:22.466Z,21.36
2018-03-02T00:11:22.708Z,21.39
2018-03-02T00:12:22.952Z,21.43
2018-03-02T00:13:23.193Z,21.43
2018-03-02T00:14:23.428Z,21.36
2018-03-02T00:15:23.667Z,21.40
2018-03-02T00:16:23.925Z,21.37
2018-03-02T00:17:24.150Z,21.39
2018-03-02T00:18:24.385Z,21.36
2018-03-02T00:19:24.624Z,21.42
2018-03-02T00:20:24.863Z,21.48
2018-03-02T00:21:25.103Z,21.36
2018-03-02T00:22:25.345Z,21.43
2018-03-02T00:23:25.589Z,21.48
2018-03-02T00:24:25.828Z,21.46
2018-03-02T00:25:26.065Z,21.46
2018-03-02T00:26:26.305Z,21.45
2018-03-02T00:27:26.545Z,21.36
2018-03-02T00:28:26.785Z,21.39
2018-03-02T00:29:27.019Z,21.37
2018-03-02T00:30:27.263Z,21.46
2018-03-02T00:31:27.499Z,21.51
2018-03-02T00:32:27.740Z,21.46
2018-03-02T00:33:28.366Z,21.45
2018-03-02T00:34:28.375Z,21.37
2018-03-02T00:35:28.615Z,21.46
2018-03-02T00:36:28.855Z,21.45
2018-03-02T00:37:29.106Z,21.46
2018-03-02T00:38:29.383Z,21.45
2018-03-02T00:39:29.570Z,21.45
2018-03-02T00:40:29.810Z,21.43
2018-03-02T00:41:30.049Z,21.48
2018-03-02T00:42:30.289Z,21.43
2018-03-02T00:43:30.529Z,21.51
2018-03-02T00:44:30.768Z,21.48
2018-03-02T00:45:31.011Z,21.45
2018-03-02T00:46:31.247Z,21.43
2018-03-02T00:47:31.489Z,21.48
2018-03-02T00:48:31.735Z,21.43
2018-03-02T00:49:31.966Z,21.45
2018-03-02T00:50:32.206Z,21.45
2018-03-02T00:51:32.451Z,21.46
2018-03-02T00:52:32.689Z,21.42
2018-03-02T00:53:32.931Z,21.50
2018-03-02T00:54:33.175Z,21.50
2018-03-02T00:55:33.424Z,21.54
2018-03-02T00:56:33.652Z,21.48
2018-03-02T00:57:33.893Z,21.40
2018-03-02T00:58:34.131Z,21.45
2018-03-02T00:59:34.370Z,21.48
2018-03-02T01:00:34.611Z,21.45
2018-03-02T01:01:34.853Z,21.42
2018-03-02T01:02:35.090Z,21.51
2018-03-02T01:03:35.332Z,21.45
2018-03-02T01:04:35.569Z,21.43
2018-03-02T01:05:35.811Z,21.43
2018-03-02T01:06:36.056Z,21.50
2018-03-02T01:07:36.289Z,21.48
2018-03-02T01:08:36.528Z,21.48
2018-03-02T01:09:36.768Z,21.48
2018-03-02T01:10:37.006Z,21.50
2018-03-02T01:11:37.270Z,21.48
2018-03-02T01:12:37.484Z,21.43
2018-03-02T01:13:37.724Z,21.51
2018-03-02T01:14:37.961Z,21.48
2018-03-02T01:15:38.202Z,21.45
2018-03-02T01:16:38.444Z,21.45
2018-03-02T01:17:38.693Z,21.42
2018-03-02T01:18:38.925Z,21.45
2018-03-02T01:19:39.162Z,21.48
2018-03-02T01:20:39.402Z,21.52
2018-03-02T01:21:39.644Z,21.42
2018-03-02T01:22:39.879Z,21.50
2018-03-02T01:23:40.118Z,21.50
2018-03-02T01:24:40.357Z,21.50
2018-03-02T01:25:40.595Z,21.43
2018-03-02T01:26:40.836Z,21.50
2018-03-02T01:27:41.082Z,21.42
2018-03-02T01:28:41.327Z,21.51
2018-03-02T01:29:41.559Z,21.48
2018-03-02T01:30:41.799Z,21.42
2018-03-02T01:31:42.038Z,21.42
2018-03-02T01:32:42.278Z,21.45
2018-03-02T01:33:42.518Z,21.50
2018-03-02T01:34:42.757Z,21.43
2018-03-02T01:35:42.998Z,21.46
2018-03-02T01:36:43.237Z,21.46
2018-03-02T01:37:43.477Z,21.48
2018-03-02T01:38:43.719Z,21.50
2018-03-02T01:39:43.962Z,21.43
2018-03-02T01:40:44.194Z,21.45
2018-03-02T01:41:44.436Z,21.40
2018-03-02T01:42:44.674Z,21.48
2018-03-02T01:43:44.914Z,21.45
2018-03-02T01:44:45.149Z,21.50
2018-03-02T01:45:45.391Z,21.48
2018-03-02T01:46:45.622Z,21.46
2018-03-02T01:47:45.860Z,21.42
2018-03-02T01:48:46.096Z,21.52
2018-03-02T01:49:46.336Z,21.51
2018-03-02T01:50:46.576Z,21.42
2018-03-02T01:51:46.812Z,21.39
2018-03-02T01:52:47.053Z,21.40
2018-03-02T01:53:47.300Z,21.46
2018-03-02T01:54:47.591Z,21.45
2018-03-02T01:55:47.795Z,21.43
2018-03-02T01:56:48.039Z,21.43
2018-03-02T01:57:48.285Z,21.48
2018-03-02T01:58:48.516Z,21.50
2018-03-02T01:59:48.755Z,21.45
2018-03-02T02:00:48.996Z,21.50
2018-03-02T02:01:49.234Z,21.42
2018-03-02T02:02:49.470Z,21.46
2018-03-02T02:03:49.710Z,21.50
2018-03-02T02:04:49.950Z,21.57
2018-03-02T02:05:50.187Z,21.42
2018-03-02T02:06:50.428Z,21.43
2018-03-02T02:07:50.675Z,21.46
2018-03-02T02:08:50.920Z,21.46
2018-03-02T02:09:51.152Z,21.43
2018-03-02T02:10:51.391Z,21.50
2018-03-02T02:11:51.630Z,21.45
2018-03-02T02:12:51.869Z,21.42
2018-03-02T02:13:52.108Z,21.45
2018-03-02T02:14:52.352Z,21.42
2018-03-02T02:15:52.586Z,21.43
2018-03-02T02:16:52.825Z,21.51
2018-03-02T02:17:53.065Z,21.42
2018-03-02T02:18:53.311Z,21.43
2018-03-02T02:19:53.538Z,21.43
2018-03-02T02:20:53.780Z,21.45
2018-03-02T02:21:54.017Z,21.52
2018-03-02T02:22:54.258Z,21.43
2018-03-02T02:23:54.504Z,21.43
2018-03-02T02:24:54.737Z,21.40
2018-03-02T02:25:54.976Z,21.43
2018-03-02T02:26:55.217Z,21.46
2018-03-02T02:27:55.455Z,21.45
2018-03-02T02:28:55.696Z,21.55
2018-03-02T02:29:55.938Z,21.51
2018-03-02T02:30:56.177Z,21.45
2018-03-02T02:31:56.416Z,21.46
2018-03-02T02:32:56.655Z,21.52
2018-03-02T02:33:56.894Z,21.54
2018-03-02T02:34:57.140Z,21.52
2018-03-02T02:35:57.372Z,21.52
2018-03-02T02:36:57.616Z,21.48
2018-03-02T02:37:57.855Z,21.52
2018-03-02T02:39:05.226Z,21.55
2018-03-02T02:40:05.490Z,21.45
2018-03-02T02:41:05.951Z,21.51
2018-03-02T02:41:58.851Z,21.51
2018-03-02T02:43:06.221Z,21.37
2018-03-02T02:44:06.680Z,21.48
2018-03-02T02:45:06.707Z,21.46
2018-03-02T02:46:07.169Z,21.42
2018-03-02T02:47:00.072Z,21.50
2018-03-02T02:48:00.308Z,21.51
2018-03-02T02:49:00.537Z,21.51
2018-03-02T02:50:00.777Z,21.51
2018-03-02T02:51:01.024Z,21.48
2018-03-02T02:52:01.264Z,21.43
2018-03-02T02:53:01.504Z,21.52
2018-03-02T02:54:01.743Z,21.45
2018-03-02T02:55:01.988Z,21.54
2018-03-02T02:56:02.220Z,21.51
2018-03-02T02:57:02.460Z,21.51
2018-03-02T02:58:02.699Z,21.57
2018-03-02T02:59:02.938Z,21.51
2018-03-02T03:00:03.192Z,21.52
2018-03-02T03:01:03.440Z,21.57
2018-03-02T03:02:03.666Z,21.54
2018-03-02T03:03:03.904Z,21.54
2018-03-02T03:04:04.144Z,21.54
2018-03-02T03:05:04.382Z,21.46
2018-03-02T03:06:04.624Z,21.48
2018-03-02T03:07:04.856Z,21.52
2018-03-02T03:08:05.095Z,21.54
2018-03-02T03:09:05.335Z,21.57
2018-03-02T03:10:05.574Z,21.43
2018-03-02T03:11:05.812Z,21.57
2018-03-02T03:12:06.051Z,21.51
2018-03-02T03:13:06.291Z,21.57
2018-03-02T03:14:06.531Z,21.48
2018-03-02T03:15:06.770Z,21.57
2018-03-02T03:16:07.012Z,21.52
2018-03-02T03:17:07.258Z,21.57
2018-03-02T03:18:07.506Z,21.54
2018-03-02T03:19:07.749Z,21.57
2018-03-02T03:20:07.996Z,21.55
2018-03-02T03:21:08.216Z,21.60
2018-03-02T03:22:08.455Z,21.54
2018-03-02T03:23:08.700Z,21.52
2018-03-02T03:24:08.943Z,21.54
2018-03-02T03:25:09.175Z,21.57
2018-03-02T03:26:09.415Z,21.57
2018-03-02T03:27:09.656Z,21.51
2018-03-02T03:28:09.894Z,21.57
2018-03-02T03:29:10.129Z,21.46
2018-03-02T03:30:10.371Z,21.54
2018-03-02T03:31:10.614Z,21.51
2018-03-02T03:32:10.846Z,21.46
2018-03-02T03:33:11.086Z,21.46
2018-03-02T03:34:11.332Z,21.54
2018-03-02T03:35:11.572Z,21.48
2018-03-02T03:36:11.809Z,21.50
2018-03-02T03:37:12.049Z,21.55
2018-03-02T03:38:12.288Z,21.61
2018-03-02T03:39:12.528Z,21.48
2018-03-02T03:40:12.763Z,21.46
2018-03-02T03:41:13.003Z,21.54
2018-03-02T03:42:13.243Z,21.61
2018-03-02T03:43:13.483Z,21.46
2018-03-02T03:44:13.723Z,21.48
2018-03-02T03:45:13.969Z,21.46
2018-03-02T03:46:14.219Z,21.45
2018-03-02T03:47:14.446Z,21.57
2018-03-02T03:48:14.686Z,21.48
2018-03-02T03:49:14.927Z,21.51
2018-03-02T03:50:15.164Z,21.57
2018-03-02T03:51:15.414Z,21.50
2018-03-02T03:52:15.646Z,21.62
2018-03-02T03:53:15.887Z,21.60
2018-03-02T03:54:16.128Z,21.48
2018-03-02T03:55:16.365Z,21.50
2018-03-02T03:56:16.605Z,21.52
2018-03-02T03:57:16.850Z,21.52
2018-03-02T03:58:17.081Z,21.54
2018-03-02T03:59:17.320Z,21.57
2018-03-02T04:00:17.559Z,21.52
2018-03-02T04:01:17.800Z,21.60
2018-03-02T04:02:18.036Z,21.60
2018-03-02T04:03:18.275Z,21.54
2018-03-02T04:04:18.515Z,21.64
2018-03-02T04:05:18.754Z,21.58
2018-03-02T04:06:18.994Z,21.58
2018-03-02T04:07:19.240Z,21.52
2018-03-02T04:08:19.518Z,21.64
2018-03-02T04:09:19.724Z,21.62
2018-03-02T04:10:19.964Z,21.62
2018-03-02T04:11:20.200Z,21.54
2018-03-02T04:12:20.440Z,21.62
2018-03-02T04:13:20.685Z,21.61
2018-03-02T04:14:20.926Z,21.50
2018-03-02T04:15:21.171Z,21.62
2018-03-02T04:16:21.404Z,21.57
2018-03-02T04:17:21.643Z,21.69
2018-03-02T04:18:21.885Z,21.69
2018-03-02T04:19:22.122Z,21.62
2018-03-02T04:20:22.363Z,21.64
2018-03-02T04:21:22.602Z,21.50
2018-03-02T04:22:22.842Z,21.51
2018-03-02T04:23:23.086Z,21.66
2018-03-02T04:24:23.322Z,21.62
2018-03-02T04:25:23.564Z,21.58
2018-03-02T04:26:23.807Z,21.62
2018-03-02T04:27:24.039Z,21.64
2018-03-02T04:28:24.289Z,21.57
2018-03-02T04:29:24.520Z,21.58
2018-03-02T04:30:24.758Z,21.58
2018-03-02T04:31:24.998Z,21.64
2018-03-02T04:32:25.238Z,21.64
2018-03-02T04:33:25.478Z,21.54
2018-03-02T04:34:25.717Z,21.60
2018-03-02T04:35:25.958Z,21.60
2018-03-02T04:36:26.199Z,21.61
2018-03-02T04:37:26.445Z,21.57
2018-03-02T04:38:26.676Z,21.64
2018-03-02T04:39:26.914Z,21.58
2018-03-02T04:40:27.163Z,21.58
2018-03-02T04:41:27.402Z,21.61
2018-03-02T04:42:27.642Z,21.62
2018-03-02T04:43:27.884Z,21.60
2018-03-02T04:44:28.130Z,21.58
2018-03-02T04:45:28.360Z,21.57
2018-03-02T04:46:28.602Z,21.57
2018-03-02T04:47:28.891Z,21.57
2018-03-02T04:48:29.079Z,21.58
2018-03-02T04:49:29.321Z,21.62
2018-03-02T04:50:29.570Z,21.55
2018-03-02T04:51:29.816Z,21.60
2018-03-02T04:52:30.050Z,21.61
2018-03-02T04:53:30.285Z,21.58
2018-03-02T04:54:30.524Z,21.60
2018-03-02T04:55:30.764Z,21.55
2018-03-02T04:56:31.000Z,21.62
2018-03-02T04:57:31.239Z,21.58
2018-03-02T04:58:31.479Z,21.61
2018-03-02T04:59:31.714Z,21.58
2018-03-02T05:00:31.956Z,21.58
2018-03-02T05:01:32.195Z,21.58
2018-03-02T05:02:32.435Z,21.60
2018-03-02T05:03:32.675Z,21.54
2018-03-02T05:04:32.915Z,21.64
2018-03-02T05:05:33.155Z,21.58
2018-03-02T05:06:33.401Z,21.61
2018-03-02T05:07:33.633Z,21.66
2018-03-02T05:08:33.871Z,21.64
2018-03-02T05:09:34.112Z,21.61
2018-03-02T05:10:34.350Z,21.62
2018-03-02T05:11:34.591Z,21.61
2018-03-02T05:12:34.832Z,21.61
2018-03-02T05:13:35.071Z,21.61
2018-03-02T05:14:35.305Z,21.54
2018-03-02T05:15:35.549Z,21.60
2018-03-02T05:16:35.791Z,21.52
2018-03-02T05:17:36.038Z,21.61
2018-03-02T05:18:36.268Z,21.62
2018-03-02T05:19:36.508Z,21.57
2018-03-02T05:20:36.747Z,21.52
2018-03-02T05:21:36.993Z,21.62
2018-03-02T05:22:37.229Z,21.61
2018-03-02T05:23:37.472Z,21.62
2018-03-02T05:24:37.709Z,21.54
2018-03-02T05:25:45.082Z,21.61
2018-03-02T05:26:45.537Z,21.60
2018-03-02T05:27:46.413Z,21.62
2018-03-02T05:28:45.987Z,21.54
2018-03-02T05:29:46.447Z,21.61
2018-03-02T05:30:46.472Z,21.61
2018-03-02T05:31:46.742Z,21.64
2018-03-02T05:32:47.479Z,21.55
2018-03-02T05:33:40.143Z,21.62
2018-03-02T05:34:40.386Z,21.55
2018-03-02T05:35:40.633Z,21.57
2018-03-02T05:36:40.876Z,21.58
2018-03-02T05:37:41.109Z,21.55
2018-03-02T05:38:41.349Z,21.58
2018-03-02T05:39:41.588Z,21.60
2018-03-02T05:40:41.827Z,21.57
2018-03-02T05:41:42.068Z,21.61
2018-03-02T05:42:42.307Z,21.60
2018-03-02T05:43:42.547Z,21.52
2018-03-02T05:44:42.787Z,21.62
2018-03-02T05:45:43.029Z,21.60
2018-03-02T05:46:43.272Z,21.57
2018-03-02T05:47:43.503Z,21.55
2018-03-02T05:48:43.741Z,21.62
2018-03-02T05:49:43.980Z,21.55
2018-03-02T05:50:44.220Z,21.66
2018-03-02T05:51:44.461Z,21.58
2018-03-02T05:52:44.693Z,21.64
2018-03-02T05:53:44.925Z,21.67
2018-03-02T05:54:45.173Z,21.55
2018-03-02T05:55:45.411Z,21.61
2018-03-02T05:56:45.652Z,21.61
2018-03-02T05:57:45.892Z,21.62
2018-03-02T05:58:46.132Z,21.55
2018-03-02T05:59:46.372Z,21.60
2018-03-02T06:00:46.612Z,21.61
2018-03-02T06:01:46.852Z,21.64
2018-03-02T06:02:47.096Z,21.61
2018-03-02T06:03:47.329Z,21.64
2018-03-02T06:04:47.568Z,21.60
2018-03-02T06:05:47.808Z,21.61
2018-03-02T06:06:48.047Z,21.58
2018-03-02T06:07:48.287Z,21.61
2018-03-02T06:08:48.527Z,21.66
2018-03-02T06:09:48.767Z,21.66
2018-03-02T06:10:49.007Z,21.66
2018-03-02T06:11:49.246Z,21.62
2018-03-02T06:12:49.488Z,21.69
2018-03-02T06:13:49.732Z,21.61
2018-03-02T06:14:49.963Z,21.55
2018-03-02T06:15:50.203Z,21.62
2018-03-02T06:16:50.445Z,21.57
2018-03-02T06:17:50.686Z,21.69
2018-03-02T06:18:50.918Z,21.62
2018-03-02T06:19:51.158Z,21.61
2018-03-02T06:20:51.399Z,21.66
2018-03-02T06:21:51.635Z,21.60
2018-03-02T06:22:51.877Z,21.61
2018-03-02T06:23:52.121Z,21.69
2018-03-02T06:24:52.367Z,21.69
2018-03-02T06:25:52.599Z,21.62
2018-03-02T06:26:52.839Z,21.66
2018-03-02T06:30:56.200Z,21.67
2018-03-02T06:31:56.444Z,21.67
2018-03-02T06:32:56.692Z,21.62
2018-03-02T06:33:56.934Z,21.64
2018-03-02T06:34:57.166Z,21.58
2018-03-02T06:35:57.435Z,21.60
2018-03-02T06:36:57.677Z,21.58
2018-03-02T06:37:57.908Z,21.64
2018-03-02T06:38:58.145Z,21.64
2018-03-02T06:39:58.385Z,21.64
2018-03-02T06:40:58.625Z,21.61
2018-03-02T06:41:58.865Z,21.62
2018-03-02T06:42:59.114Z,21.69
2018-03-02T06:43:59.350Z,21.73
2018-03-02T06:44:59.586Z,21.66
2018-03-02T06:45:59.827Z,21.61
2018-03-02T06:47:00.067Z,21.57
2018-03-02T06:48:00.307Z,21.66
2018-03-02T06:49:00.541Z,21.62
2018-03-02T06:50:00.780Z,21.61
2018-03-02T06:51:01.021Z,21.67
2018-03-02T06:52:01.261Z,21.67
2018-03-02T06:53:01.498Z,21.61
2018-03-02T06:54:01.749Z,21.69
2018-03-02T06:55:01.994Z,21.62
2018-03-02T06:56:02.225Z,21.70
2018-03-02T06:57:02.469Z,21.62
2018-03-02T06:58:02.709Z,21.62
2018-03-02T06:59:02.953Z,21.61
2018-03-02T07:00:03.183Z,21.60
2018-03-02T07:01:03.454Z,21.69
2018-03-02T07:02:03.662Z,21.64
2018-03-02T07:03:03.900Z,21.67
2018-03-02T07:04:04.141Z,21.67
2018-03-02T07:05:04.389Z,21.72
2018-03-02T07:06:04.621Z,21.62
2018-03-02T07:07:04.858Z,21.62
2018-03-02T07:08:05.097Z,21.60
2018-03-02T07:09:05.338Z,21.66
2018-03-02T07:10:05.578Z,21.67
2018-03-02T07:11:05.822Z,21.73
2018-03-02T07:12:06.057Z,21.72
2018-03-02T07:13:06.297Z,21.73
2018-03-02T07:14:06.537Z,21.75
2018-03-02T07:15:06.778Z,21.73
2018-03-02T07:16:07.020Z,21.69
2018-03-02T07:17:07.264Z,21.77
2018-03-02T07:18:07.497Z,21.67
2018-03-02T07:19:07.737Z,21.61
2018-03-02T07:20:07.976Z,21.76
2018-03-02T07:21:08.213Z,21.70
2018-03-02T07:22:08.458Z,21.73
2018-03-02T07:23:08.705Z,21.72
2018-03-02T07:24:08.943Z,21.77
2018-03-02T07:25:09.173Z,21.69
2018-03-02T07:26:09.420Z,21.77
2018-03-02T07:27:09.661Z,21.73
2018-03-02T07:28:09.905Z,21.76
2018-03-02T07:29:10.135Z,21.76
2018-03-02T07:30:10.371Z,21.73
2018-03-02T07:31:10.611Z,21.75
2018-03-02T07:32:10.849Z,21.73
2018-03-02T07:33:11.092Z,21.70
2018-03-02T07:34:11.329Z,21.73
2018-03-02T07:35:11.568Z,21.72
2018-03-02T07:36:11.808Z,21.73
2018-03-02T07:37:12.047Z,21.72
2018-03-02T07:38:12.288Z,21.69
2018-03-02T07:39:12.535Z,21.73
2018-03-02T07:40:12.766Z,21.72
2018-03-02T07:41:13.006Z,21.73
2018-03-02T07:42:13.248Z,21.75
2018-03-02T07:43:13.485Z,21.72
2018-03-02T07:44:13.726Z,21.70
2018-03-02T07:45:13.963Z,21.73
2018-03-02T07:46:14.208Z,21.73
2018-03-02T07:47:14.451Z,21.80
2018-03-02T07:48:14.685Z,21.67
2018-03-02T07:49:14.926Z,21.69
2018-03-02T07:50:15.171Z,21.73
2018-03-02T07:51:15.402Z,21.73
2018-03-02T07:52:15.642Z,21.77
2018-03-02T07:53:15.882Z,21.75
2018-03-02T07:54:16.124Z,21.75
2018-03-02T07:55:16.362Z,21.67
2018-03-02T07:56:16.601Z,21.72
2018-03-02T07:57:16.841Z,21.70
2018-03-02T07:58:17.319Z,21.72
2018-03-02T07:59:17.320Z,21.76
2018-03-02T08:00:17.569Z,21.75
2018-03-02T08:01:17.816Z,21.75
2018-03-02T08:02:18.043Z,21.70
2018-03-02T08:03:18.283Z,21.75
2018-03-02T08:04:18.547Z,21.72
2018-03-02T08:05:18.763Z,21.70
2018-03-02T08:06:19.002Z,21.73
2018-03-02T08:07:19.248Z,21.73
2018-03-02T08:08:19.496Z,21.73
2018-03-02T08:09:19.724Z,21.72
2018-03-02T08:10:19.964Z,21.72
2018-03-02T08:11:27.836Z,21.73
2018-03-02T08:12:26.722Z,21.70
2018-03-02T08:13:27.897Z,21.67
2018-03-02T08:14:28.342Z,21.73
2018-03-02T08:15:28.370Z,21.75
2018-03-02T08:16:28.627Z,21.73
2018-03-02T08:17:28.874Z,21.75
2018-03-02T08:18:29.129Z,21.75
2018-03-02T08:19:22.251Z,21.72
2018-03-02T08:20:22.498Z,21.77
2018-03-02T08:21:22.729Z,21.76
2018-03-02T08:22:22.970Z,21.70
2018-03-02T08:23:23.202Z,21.75
2018-03-02T08:24:23.442Z,21.75
2018-03-02T08:25:23.681Z,21.77
2018-03-02T08:26:23.918Z,21.70
2018-03-02T08:27:24.160Z,21.77
2018-03-02T08:28:24.406Z,21.72
2018-03-02T08:29:24.650Z,21.72
2018-03-02T08:30:24.884Z,21.73
2018-03-02T08:31:25.122Z,21.70
2018-03-02T08:32:25.363Z,21.73
2018-03-02T08:33:25.605Z,21.75
2018-03-02T08:34:25.838Z,21.72
2018-03-02T08:35:26.078Z,21.73
2018-03-02T08:36:26.318Z,21.79
2018-03-02T08:37:26.558Z,21.72
2018-03-02T08:38:26.796Z,21.77
2018-03-02T08:39:27.047Z,21.73
2018-03-02T08:40:27.306Z,21.76
2018-03-02T08:41:27.519Z,21.70
2018-03-02T08:42:27.760Z,21.72
2018-03-02T08:43:28.001Z,21.76
2018-03-02T08:44:28.240Z,21.70
2018-03-02T08:45:28.476Z,21.73
2018-03-02T08:46:28.716Z,21.77
2018-03-02T08:47:28.958Z,21.72
2018-03-02T08:48:29.192Z,21.76
2018-03-02T08:49:29.433Z,21.76
2018-03-02T08:50:29.681Z,21.73
2018-03-02T08:51:29.947Z,21.72
2018-03-02T08:52:30.157Z,21.72
2018-03-02T08:53:30.398Z,21.69
2018-03-02T08:54:30.637Z,21.72
2018-03-02T08:55:30.877Z,21.72
2018-03-02T08:56:31.117Z,21.72
2018-03-02T08:57:31.363Z,21.69
2018-03-02T08:58:31.610Z,21.73
2018-03-02T08:59:31.845Z,21.82
2018-03-02T09:00:32.089Z,21.72
2018-03-02T09:01:32.328Z,21.69
2018-03-02T09:02:32.566Z,21.76
2018-03-02T09:03:32.808Z,21.75
2018-03-02T09:04:33.051Z,21.69
2018-03-02T09:05:33.344Z,21.73
2018-03-02T09:06:33.528Z,21.69
2018-03-02T09:07:33.772Z,21.72
2018-03-02T09:08:34.010Z,21.77
2018-03-02T09:09:34.251Z,21.69
2018-03-02T09:10:34.488Z,21.69
2018-03-02T09:11:34.730Z,21.69
2018-03-02T09:12:34.965Z,21.72
2018-03-02T09:13:35.205Z,21.75
2018-03-02T09:14:35.446Z,21.70
2018-03-02T09:15:35.687Z,21.75
2018-03-02T09:16:35.933Z,21.75
2018-03-02T09:17:36.165Z,21.73
2018-03-02T09:18:36.402Z,21.73
2018-03-02T09:19:36.644Z,21.75
2018-03-02T09:20:36.890Z,21.69
2018-03-02T09:21:37.121Z,21.77
2018-03-02T09:22:37.347Z,21.72
2018-03-02T09:23:37.587Z,21.69
2018-03-02T09:24:37.831Z,21.76
2018-03-02T09:25:38.065Z,21.82
2018-03-02T09:26:38.304Z,21.70
2018-03-02T09:27:38.545Z,21.80
2018-03-02T09:28:38.786Z,21.83
2018-03-02T09:29:39.026Z,21.82
2018-03-02T09:30:39.263Z,21.76
2018-03-02T09:31:39.508Z,21.76
2018-03-02T09:32:39.748Z,21.79
2018-03-02T09:33:41.945Z,21.83
2018-03-02T09:36:11.923Z,21.79
2018-03-02T09:37:20.196Z,21.69
2018-03-02T09:38:12.382Z,21.75
2018-03-02T09:39:12.619Z,21.82
2018-03-02T09:40:12.861Z,21.75
2018-03-02T09:41:13.092Z,21.82
2018-03-02T09:42:13.331Z,21.83
2018-03-02T09:43:13.570Z,21.83
2018-03-02T09:44:13.806Z,21.85
2018-03-02T09:45:14.050Z,21.79
2018-03-02T09:46:14.294Z,21.76
2018-03-02T09:47:14.530Z,21.70
2018-03-02T09:48:14.817Z,21.83
2018-03-02T09:49:15.014Z,21.83
2018-03-02T09:50:15.253Z,21.83
2018-03-02T09:51:15.487Z,21.77
2018-03-02T09:52:15.723Z,21.83
2018-03-02T09:53:15.969Z,21.85
2018-03-02T09:54:16.209Z,21.77
2018-03-02T09:55:16.458Z,21.82
2018-03-02T09:56:16.702Z,21.80
2018-03-02T09:57:16.939Z,21.77
2018-03-02T09:58:17.176Z,21.83
2018-03-02T09:59:17.424Z,21.85
2018-03-02T10:00:17.666Z,21.79
2018-03-02T10:01:17.918Z,21.80
2018-03-02T10:02:18.144Z,21.77
2018-03-02T10:03:18.383Z,21.88
2018-03-02T10:04:18.626Z,21.82
2018-03-02T10:05:18.865Z,21.77
2018-03-02T10:06:19.105Z,21.80
2018-03-02T10:07:19.353Z,21.80
2018-03-02T10:08:19.597Z,21.79
2018-03-02T10:09:19.831Z,21.85
2018-03-02T10:10:20.073Z,21.77
2018-03-02T10:11:20.338Z,21.83
2018-03-02T10:12:20.547Z,21.85
2018-03-02T10:13:20.783Z,21.82
2018-03-02T10:14:21.021Z,21.85
2018-03-02T10:15:21.284Z,21.85
2018-03-02T10:16:21.519Z,21.85
2018-03-02T10:17:21.810Z,21.88
2018-03-02T10:18:21.999Z,21.80
2018-03-02T10:19:22.239Z,21.88
2018-03-02T10:20:22.482Z,21.80
2018-03-02T10:21:22.728Z,21.96
2018-03-02T10:22:22.971Z,21.83
2018-03-02T10:23:23.228Z,21.89
2018-03-02T10:24:23.444Z,21.93
2018-03-02T10:25:23.684Z,21.91
2018-03-02T10:26:23.925Z,21.93
2018-03-02T10:27:24.165Z,21.93
2018-03-02T10:28:24.409Z,21.98
2018-03-02T10:29:24.649Z,21.95
2018-03-02T10:30:24.886Z,21.98
2018-03-02T10:31:25.126Z,21.96
2018-03-02T10:32:25.366Z,21.96
2018-03-02T10:33:25.608Z,21.98
2018-03-02T10:34:25.844Z,21.98
2018-03-02T10:35:26.083Z,22.00
2018-03-02T10:36:26.323Z,21.98
2018-03-02T10:37:26.562Z,21.98
2018-03-02T10:38:26.801Z,21.99
2018-03-02T10:39:27.048Z,22.04
2018-03-02T10:40:27.292Z,22.00
2018-03-02T10:41:27.520Z,22.00
2018-03-02T10:42:27.767Z,21.98
2018-03-02T10:43:28.013Z,22.11
2018-03-02T10:44:28.246Z,22.00
2018-03-02T10:45:28.488Z,21.98
2018-03-02T10:46:28.733Z,21.99
2018-03-02T10:47:28.978Z,22.08
2018-03-02T10:48:29.210Z,21.96
2018-03-02T10:49:29.451Z,21.96
2018-03-02T10:50:29.691Z,22.02
2018-03-02T10:51:29.936Z,22.13
2018-03-02T10:52:30.171Z,21.99
2018-03-02T10:53:30.406Z,22.06
2018-03-02T10:54:30.645Z,21.95
2018-03-02T10:55:30.885Z,22.08
2018-03-02T10:56:31.125Z,22.06
2018-03-02T10:57:37.575Z,22.10
2018-03-02T10:58:37.780Z,22.07
2018-03-02T10:59:39.183Z,22.08
2018-03-02T11:00:39.435Z,22.06
2018-03-02T11:01:39.693Z,22.08
2018-03-02T11:02:39.951Z,22.06
2018-03-02T11:05:11.756Z,22.06
2018-03-02T11:06:11.996Z,22.13
2018-03-02T11:07:12.235Z,22.00
2018-03-02T11:08:12.476Z,22.07
2018-03-02T11:09:12.715Z,22.02
2018-03-02T11:10:12.965Z,22.04
2018-03-02T11:11:13.190Z,22.04
2018-03-02T11:12:13.431Z,22.07
2018-03-02T11:13:13.672Z,22.08
2018-03-02T11:14:13.907Z,22.06
2018-03-02T11:15:14.147Z,22.07
2018-03-02T11:16:14.396Z,22.07
2018-03-02T11:17:14.636Z,22.06
2018-03-02T11:18:14.873Z,22.10
2018-03-02T11:19:15.112Z,22.10
2018-03-02T11:20:15.353Z,22.00
2018-03-02T11:21:15.597Z,22.11
2018-03-02T11:22:15.827Z,22.10
2018-03-02T11:23:16.065Z,21.98
2018-03-02T11:24:16.307Z,21.98
2018-03-02T11:25:16.546Z,22.00
2018-03-02T11:26:16.789Z,22.04
2018-03-02T11:27:17.034Z,22.04
2018-03-02T11:28:17.279Z,22.08
2018-03-02T11:29:17.510Z,22.08
2018-03-02T11:30:17.751Z,22.06
2018-03-02T11:31:17.990Z,22.00
2018-03-02T11:32:18.232Z,22.14
2018-03-02T11:33:18.465Z,22.06
2018-03-02T11:34:18.705Z,22.15
2018-03-02T11:35:18.950Z,22.10
2018-03-02T11:36:19.191Z,22.10
2018-03-02T11:37:19.432Z,22.07
2018-03-02T11:38:19.671Z,22.07
2018-03-02T11:39:19.914Z,22.07
2018-03-02T11:40:20.148Z,22.07
2018-03-02T11:41:20.390Z,22.11
2018-03-02T11:42:20.630Z,22.11
2018-03-02T11:43:20.870Z,22.04
2018-03-02T11:44:21.110Z,22.04
2018-03-02T11:45:21.355Z,22.10
2018-03-02T11:46:21.600Z,22.07
2018-03-02T11:47:21.832Z,22.08
2018-03-02T11:48:22.073Z,22.15
2018-03-02T11:49:22.310Z,22.14
2018-03-02T11:50:22.550Z,22.10
2018-03-02T11:51:22.784Z,22.07
2018-03-02T11:52:23.023Z,22.15
2018-03-02T11:53:23.265Z,22.07
2018-03-02T11:54:23.505Z,22.11
2018-03-02T11:55:23.746Z,22.08
2018-03-02T11:56:23.995Z,22.10
2018-03-02T11:57:24.239Z,22.11
2018-03-02T11:58:24.470Z,22.14
2018-03-02T11:59:24.710Z,22.14
2018-03-02T12:00:24.950Z,22.11
2018-03-02T12:01:25.194Z,22.08
2018-03-02T12:02:25.432Z,22.14
2018-03-02T12:03:25.663Z,22.08
2018-03-02T12:04:25.905Z,22.20
2018-03-02T12:05:26.146Z,22.14
2018-03-02T12:06:26.389Z,22.11
2018-03-02T12:07:26.625Z,22.02
2018-03-02T12:08:26.881Z,22.04
2018-03-02T12:09:27.129Z,22.06
2018-03-02T12:10:27.362Z,22.15
2018-03-02T12:11:27.608Z,22.13
2018-03-02T12:12:27.839Z,22.17
2018-03-02T12:13:28.079Z,22.11
2018-03-02T12:14:28.319Z,22.15
2018-03-02T12:15:28.557Z,22.11
2018-03-02T12:16:28.798Z,22.14
2018-03-02T12:17:29.039Z,22.20
2018-03-02T12:18:29.280Z,22.15
2018-03-02T12:19:29.520Z,22.02
2018-03-02T12:20:29.760Z,22.18
2018-03-02T12:21:30.000Z,22.13
2018-03-02T12:22:30.248Z,22.17
2018-03-02T12:23:30.478Z,22.10
2018-03-02T12:24:30.719Z,22.06
2018-03-02T12:25:30.962Z,22.10
2018-03-02T12:26:31.194Z,22.11
2018-03-02T12:27:31.431Z,22.15
2018-03-02T12:28:31.707Z,22.15
2018-03-02T12:29:31.909Z,22.23
2018-03-02T12:30:32.148Z,22.15
2018-03-02T12:31:32.390Z,22.15
2018-03-02T12:32:32.633Z,22.17
2018-03-02T12:33:32.880Z,22.14
2018-03-02T12:34:33.111Z,22.18
2018-03-02T12:35:33.352Z,22.20
2018-03-02T12:36:33.618Z,22.13
2018-03-02T12:37:33.834Z,22.18
2018-03-02T12:38:34.073Z,22.20
2018-03-02T12:39:34.319Z,22.20
2018-03-02T12:40:34.557Z,22.18
2018-03-02T12:41:34.796Z,22.20
2018-03-02T12:42:35.036Z,22.20
2018-03-02T12:43:35.277Z,22.17
2018-03-02T12:44:35.595Z,22.18
2018-03-02T12:45:35.757Z,22.22
2018-03-02T12:46:35.998Z,22.11
2018-03-02T12:47:36.234Z,22.15
2018-03-02T12:48:36.478Z,22.22
2018-03-02T12:49:36.717Z,22.18
2018-03-02T12:50:36.957Z,22.20
2018-03-02T12:51:37.209Z,22.23
2018-03-02T12:52:37.435Z,22.26
2018-03-02T12:53:37.674Z,22.18
2018-03-02T12:54:37.953Z,22.20
2018-03-02T12:55:38.163Z,22.25
2018-03-02T12:56:38.402Z,22.18
2018-03-02T12:57:38.643Z,22.18
2018-03-02T12:58:38.888Z,22.20
2018-03-02T12:59:39.119Z,22.14
2018-03-02T13:00:39.364Z,22.18
2018-03-02T13:01:39.603Z,22.22